EHBK Airport Information

Runway Information
Runway 03 Length 8202 ft width 148 ft
Elevation 365 ft Threshold 820 ft Heading 33
Runway 21 Length 8202 ft Width 148 ft
Elevation 370 ft Threshold 820 ft Heading 213
Airport Frequencies
Type APP Name BEEK APP Frequency 120.2 MHZ
Type ATIS Name ATIS Frequency 124.575 MHZ
Type GND Name BEEK GND Frequency 121.825 MHZ
Type TWR Name BEEK TWR Frequency 119.475 MHZ
Airport Navaids
Type VOR-DME Name Maastricht Frequency 108600 KHZ
Type NDB Name Maastricht Frequency 373 KHZ
Airport Weather Information & NOTAM
ADDS - METARS form results

(0325 UTC 19 August 2018)
 
METAR text: EHBK 190255Z AUTO 20005KT 9999 NSC 14/13 Q1022 NOSIG
Conditions at: EHBK (ZUID-LIMBURG/BEE, NL) observed 0255 UTC 19 August 2018
Temperature: 14.0°C (57°F)
Dewpoint: 13.0°C (55°F) [RH = 94%]
Pressure (altimeter): 30.18 inches Hg (1022.0 mb)
Winds: from the SSW (200 degrees) at 6 MPH (5 knots; 2.6 m/s)
Visibility: 6 or more miles (10+ km)
Ceiling: at least 12,000 feet AGL
Clouds: sky clear below 12,000 feet AGL
Weather: no significant weather observed at this time